createdAt,value
2022-09-27T00:01:47.805Z,1.50
2022-09-27T00:04:16.092Z,1.35
2022-09-27T00:06:44.421Z,1.13
2022-09-27T00:09:15.983Z,1.10
2022-09-27T00:11:44.452Z,1.55
2022-09-27T00:14:15.081Z,1.25
2022-09-27T00:16:44.589Z,1.55
2022-09-27T00:19:15.740Z,1.25
2022-09-27T00:21:45.246Z,1.67
2022-09-27T00:24:15.273Z,1.30
2022-09-27T00:26:43.874Z,1.20
2022-09-27T00:29:13.139Z,1.27
2022-09-27T00:31:41.698Z,1.38
2022-09-27T00:34:21.202Z,1.05
2022-09-27T00:36:50.245Z,1.08
2022-09-27T00:39:19.052Z,1.60
2022-09-27T00:41:47.695Z,0.90
2022-09-27T00:44:25.093Z,1.23
2022-09-27T00:47:21.151Z,1.05
2022-09-27T00:49:53.938Z,0.90
2022-09-27T00:52:43.647Z,1.33
2022-09-27T00:55:17.340Z,1.08
2022-09-27T00:57:47.866Z,1.10
2022-09-27T01:00:16.933Z,0.73
2022-09-27T01:02:50.861Z,0.93
2022-09-27T01:05:26.110Z,1.30
2022-09-27T01:07:56.846Z,1.23
2022-09-27T01:13:18.989Z,1.08
2022-09-27T01:15:57.638Z,1.40
2022-09-27T01:18:42.632Z,1.70
2022-09-27T01:21:41.849Z,0.90
2022-09-27T01:24:41.406Z,1.20
2022-09-27T01:27:42.118Z,1.17
2022-09-27T01:30:22.766Z,1.10
2022-09-27T01:33:08.537Z,0.95
2022-09-27T01:35:43.412Z,1.27
2022-09-27T01:38:23.307Z,1.00
2022-09-27T01:41:04.194Z,1.10
2022-09-27T01:44:07.916Z,0.90
2022-09-27T01:46:50.925Z,1.17
2022-09-27T01:49:58.181Z,1.02
2022-09-27T01:52:33.795Z,0.93
2022-09-27T01:55:07.061Z,1.00
2022-09-27T01:57:55.295Z,1.15
2022-09-27T02:00:26.601Z,1.08
2022-09-27T02:03:02.073Z,1.13
2022-09-27T02:05:54.486Z,1.17
2022-09-27T02:08:44.041Z,1.17
2022-09-27T02:11:25.137Z,0.70
2022-09-27T02:14:28.296Z,0.90
2022-09-27T02:17:11.697Z,1.23
2022-09-27T02:20:11.923Z,1.60
2022-09-27T02:23:24.027Z,1.08
2022-09-27T02:26:17.624Z,1.17
2022-09-27T02:29:16.564Z,1.40
2022-09-27T02:31:51.390Z,1.42
2022-09-27T02:34:24.531Z,1.33
2022-09-27T02:36:53.510Z,2.33
2022-09-27T02:39:23.049Z,1.27
2022-09-27T02:42:00.238Z,1.05
2022-09-27T02:44:29.592Z,1.10
2022-09-27T02:47:36.705Z,1.20
2022-09-27T02:50:40.271Z,1.13
2022-09-27T02:53:25.767Z,0.98
2022-09-27T02:56:06.916Z,1.25
2022-09-27T02:59:21.853Z,1.02
2022-09-27T03:02:14.195Z,1.10
2022-09-27T03:05:13.404Z,1.00
2022-09-27T03:07:42.574Z,0.80
2022-09-27T03:10:23.189Z,1.20
2022-09-27T03:12:52.208Z,0.90
2022-09-27T03:15:20.976Z,1.00
2022-09-27T03:18:12.219Z,1.20
2022-09-27T03:20:58.921Z,1.02
2022-09-27T03:23:27.806Z,1.20
2022-09-27T03:25:56.605Z,1.20
2022-09-27T03:28:25.806Z,1.52
2022-09-27T03:30:54.592Z,0.82
2022-09-27T03:33:48.913Z,1.65
2022-09-27T03:36:17.389Z,1.08
2022-09-27T03:38:45.924Z,1.05
2022-09-27T03:41:18.182Z,1.00
2022-09-27T03:43:46.490Z,1.52
2022-09-27T03:46:14.901Z,1.23
2022-09-27T03:48:45.033Z,1.10
2022-09-27T03:51:13.388Z,1.40
2022-09-27T03:53:42.994Z,0.90
2022-09-27T03:56:12.071Z,1.67
2022-09-27T03:58:40.581Z,0.88
2022-09-27T04:01:09.545Z,1.15
2022-09-27T04:03:39.993Z,1.15
2022-09-27T04:06:27.150Z,1.70
2022-09-27T04:08:56.014Z,1.10
2022-09-27T04:11:29.461Z,1.10
2022-09-27T04:13:58.889Z,1.52
2022-09-27T04:16:27.622Z,1.10
2022-09-27T04:19:28.469Z,0.90
2022-09-27T04:22:11.045Z,1.60
2022-09-27T04:24:39.825Z,1.20
2022-09-27T04:27:26.677Z,0.98
2022-09-27T04:29:55.161Z,1.25
2022-09-27T04:32:45.070Z,0.98
2022-09-27T04:35:50.343Z,1.10
2022-09-27T04:38:22.475Z,0.98
2022-09-27T04:40:51.690Z,1.27
2022-09-27T04:43:20.263Z,0.80
2022-09-27T04:45:48.746Z,1.20
2022-09-27T04:48:17.204Z,1.00
2022-09-27T04:50:45.891Z,0.90
2022-09-27T04:53:15.782Z,1.30
2022-09-27T04:55:47.440Z,1.65
2022-09-27T04:58:16.175Z,1.35
2022-09-27T05:00:45.677Z,1.27
2022-09-27T05:03:43.052Z,1.45
2022-09-27T05:06:13.568Z,1.15
2022-09-27T05:08:42.611Z,1.02
2022-09-27T05:11:31.208Z,1.95
2022-09-27T05:14:18.729Z,2.25
2022-09-27T05:17:03.608Z,1.45
2022-09-27T05:19:47.620Z,1.08
2022-09-27T05:22:21.200Z,1.42
2022-09-27T05:24:49.908Z,1.42
2022-09-27T05:27:20.462Z,1.20
2022-09-27T05:32:23.632Z,1.55
2022-09-27T05:35:02.474Z,0.90
2022-09-27T05:37:31.401Z,1.10
2022-09-27T05:40:01.225Z,1.40
2022-09-27T05:42:40.146Z,0.82
2022-09-27T05:45:09.124Z,1.42
2022-09-27T05:47:37.742Z,1.55
2022-09-27T05:50:09.348Z,1.30
2022-09-27T05:52:38.277Z,1.40
2022-09-27T05:55:08.172Z,1.10
2022-09-27T05:57:36.554Z,0.80
2022-09-27T06:00:09.918Z,1.05
2022-09-27T06:02:41.483Z,0.73
2022-09-27T06:05:30.694Z,1.00
2022-09-27T06:08:19.975Z,1.10
2022-09-27T06:10:52.992Z,0.88
2022-09-27T06:15:52.930Z,1.63
2022-09-27T06:18:22.329Z,1.02
2022-09-27T06:20:52.718Z,1.10
2022-09-27T06:23:23.145Z,1.10
2022-09-27T06:25:53.505Z,0.90
2022-09-27T06:28:39.013Z,1.30
2022-09-27T06:31:12.125Z,1.00
2022-09-27T06:33:50.276Z,1.30
2022-09-27T06:36:19.315Z,1.20
2022-09-27T06:38:49.216Z,1.02
2022-09-27T06:41:38.066Z,1.30
2022-09-27T06:44:11.555Z,0.93
2022-09-27T06:47:18.296Z,0.80
2022-09-27T06:49:57.914Z,1.08
2022-09-27T06:52:27.287Z,0.90
2022-09-27T06:54:55.627Z,1.33
2022-09-27T06:57:42.458Z,0.90
2022-09-27T07:00:23.986Z,1.08
2022-09-27T07:03:04.288Z,0.90
2022-09-27T07:08:45.454Z,1.02
2022-09-27T07:11:15.522Z,0.82
2022-09-27T07:13:44.503Z,1.05
2022-09-27T07:16:14.193Z,0.90
2022-09-27T07:18:43.513Z,0.70
2022-09-27T07:21:12.960Z,0.80
2022-09-27T07:23:41.285Z,1.00
2022-09-27T07:26:11.756Z,0.75
2022-09-27T07:28:41.734Z,1.02
2022-09-27T07:31:14.156Z,0.60
2022-09-27T07:33:43.621Z,0.60
2022-09-27T07:36:13.660Z,1.03
2022-09-27T07:38:44.811Z,0.70
2022-09-27T07:41:14.888Z,0.95
2022-09-27T07:43:45.350Z,0.80
2022-09-27T07:46:16.368Z,1.08
2022-09-27T07:48:52.441Z,0.85
2022-09-27T07:51:39.570Z,0.90
2022-09-27T07:54:40.316Z,1.30
2022-09-27T07:57:16.545Z,0.85
2022-09-27T07:59:50.058Z,1.58
2022-09-27T08:02:21.649Z,0.98
2022-09-27T08:04:51.604Z,1.08
2022-09-27T08:07:21.045Z,2.10
2022-09-27T08:09:53.290Z,0.90
2022-09-27T08:12:22.465Z,1.10
2022-09-27T08:14:52.270Z,1.15
2022-09-27T08:17:20.661Z,1.17
2022-09-27T08:20:24.344Z,1.23
2022-09-27T08:23:19.931Z,1.60
2022-09-27T08:25:59.353Z,1.00
2022-09-27T08:28:31.757Z,1.23
2022-09-27T08:31:06.053Z,1.42
2022-09-27T08:33:40.496Z,1.10
2022-09-27T08:36:13.876Z,1.33
2022-09-27T08:38:43.070Z,1.58
2022-09-27T08:41:15.274Z,1.58
2022-09-27T08:44:08.607Z,1.50
2022-09-27T08:46:54.322Z,1.20
2022-09-27T08:49:33.997Z,1.00
2022-09-27T08:52:06.320Z,1.20
2022-09-27T08:54:36.372Z,1.10
2022-09-27T08:57:11.769Z,1.35
2022-09-27T09:00:05.428Z,1.15
2022-09-27T09:02:40.359Z,1.10
2022-09-27T09:05:21.364Z,1.08
2022-09-27T09:08:00.622Z,0.95
2022-09-27T09:11:09.272Z,1.38
2022-09-27T09:13:48.709Z,0.88
2022-09-27T09:16:42.650Z,1.15
2022-09-27T09:19:32.505Z,1.52
2022-09-27T09:22:38.423Z,0.80
2022-09-27T09:25:36.311Z,0.88
2022-09-27T09:28:43.691Z,0.70
2022-09-27T09:31:28.909Z,1.30
2022-09-27T09:34:04.002Z,1.05
2022-09-27T09:36:47.502Z,1.00
2022-09-27T09:39:39.782Z,0.93
2022-09-27T09:42:26.147Z,0.65
2022-09-27T09:45:16.569Z,0.70
2022-09-27T09:48:04.915Z,0.75
2022-09-27T09:50:56.614Z,0.80
2022-09-27T09:53:42.634Z,0.98
2022-09-27T09:56:34.446Z,1.30
2022-09-27T09:59:20.382Z,1.13
2022-09-27T10:01:55.886Z,0.75
2022-09-27T10:04:28.103Z,0.70
2022-09-27T10:07:01.364Z,0.80
2022-09-27T10:09:34.568Z,0.80
2022-09-27T10:12:36.132Z,0.70
2022-09-27T10:17:42.414Z,0.80
2022-09-27T10:20:22.308Z,0.80
2022-09-27T10:22:55.532Z,0.40
2022-09-27T10:26:00.384Z,1.02
2022-09-27T10:28:44.710Z,0.73
2022-09-27T10:31:18.069Z,1.38
2022-09-27T10:34:17.817Z,0.85
2022-09-27T10:37:04.779Z,4.60
2022-09-27T10:39:35.666Z,1.77
2022-09-27T10:42:22.901Z,0.63
2022-09-27T10:44:51.349Z,0.85
2022-09-27T10:47:31.474Z,0.50
2022-09-27T10:50:49.122Z,0.68
2022-09-27T10:53:25.726Z,0.70
2022-09-27T10:56:02.340Z,0.60
2022-09-27T10:58:34.878Z,0.70
2022-09-27T11:01:09.454Z,0.68
2022-09-27T11:04:24.982Z,0.80
2022-09-27T11:07:07.684Z,0.80
2022-09-27T11:09:55.951Z,0.80
2022-09-27T11:12:26.185Z,0.90
2022-09-27T11:14:59.409Z,0.90
2022-09-27T11:17:40.397Z,0.70
2022-09-27T11:20:33.864Z,0.95
2022-09-27T11:23:23.703Z,0.70
2022-09-27T11:26:17.745Z,0.50
2022-09-27T11:28:57.529Z,0.70
2022-09-27T11:32:13.526Z,0.63
2022-09-27T11:35:26.848Z,0.60
2022-09-27T11:38:34.635Z,0.68
2022-09-27T11:41:38.028Z,0.90
2022-09-27T11:44:41.415Z,0.85
2022-09-27T11:47:27.251Z,0.60
2022-09-27T11:50:18.487Z,1.00
2022-09-27T11:52:57.061Z,0.90
2022-09-27T11:55:43.461Z,1.00
2022-09-27T11:58:35.596Z,0.50
2022-09-27T12:01:33.075Z,0.68
2022-09-27T12:04:13.456Z,0.60
2022-09-27T12:07:22.119Z,0.82
2022-09-27T12:09:57.225Z,0.60
2022-09-27T12:12:32.073Z,0.40
2022-09-27T12:15:07.440Z,0.50
2022-09-27T12:17:42.765Z,0.50
2022-09-27T12:20:26.094Z,0.60
2022-09-27T12:23:03.153Z,0.30
2022-09-27T12:26:03.655Z,0.63
2022-09-27T12:28:55.418Z,0.43
2022-09-27T12:31:30.948Z,0.70
2022-09-27T12:34:06.019Z,0.40
2022-09-27T12:36:43.925Z,0.50
2022-09-27T12:39:42.631Z,0.40
2022-09-27T12:42:28.403Z,0.60
2022-09-27T12:45:01.558Z,1.20
2022-09-27T12:47:45.314Z,0.80
2022-09-27T12:50:30.918Z,1.02
2022-09-27T12:53:12.357Z,0.70
2022-09-27T12:56:00.606Z,0.90
2022-09-27T12:58:52.559Z,1.13
2022-09-27T13:01:26.585Z,1.00
2022-09-27T13:04:37.212Z,1.00
2022-09-27T13:07:57.076Z,1.10
2022-09-27T13:10:29.591Z,0.70
2022-09-27T13:13:04.667Z,0.80
2022-09-27T13:15:36.418Z,1.00
2022-09-27T13:18:07.566Z,0.68
2022-09-27T13:20:49.768Z,0.73
2022-09-27T13:23:42.468Z,0.70
2022-09-27T13:26:30.088Z,2.20
2022-09-27T13:29:03.779Z,1.80
2022-09-27T13:31:55.739Z,1.00
2022-09-27T13:34:52.364Z,0.70
2022-09-27T13:37:51.831Z,0.73
2022-09-27T13:40:30.957Z,0.60
2022-09-27T13:43:13.323Z,0.57
2022-09-27T13:46:11.043Z,0.70
2022-09-27T13:48:59.619Z,0.65
2022-09-27T13:51:48.078Z,0.60
2022-09-27T13:54:59.160Z,0.73
2022-09-27T13:58:19.949Z,0.60
2022-09-27T14:00:55.563Z,0.73
2022-09-27T14:03:35.685Z,1.33
2022-09-27T14:06:08.981Z,0.75
2022-09-27T14:08:56.890Z,1.40
2022-09-27T14:11:42.523Z,1.20
2022-09-27T14:14:17.882Z,0.80
2022-09-27T14:16:52.540Z,0.50
2022-09-27T14:19:28.947Z,0.60
2022-09-27T14:21:57.760Z,0.70
2022-09-27T14:24:53.723Z,0.60
2022-09-27T14:27:36.821Z,0.93
2022-09-27T14:30:30.000Z,0.63
2022-09-27T14:33:33.382Z,0.70
2022-09-27T14:36:49.832Z,0.80
2022-09-27T14:39:35.947Z,1.50
2022-09-27T14:42:26.591Z,0.80
2022-09-27T14:45:00.763Z,0.70
2022-09-27T14:47:29.656Z,0.70
2022-09-27T14:50:13.504Z,0.80
2022-09-27T14:52:42.003Z,0.93
2022-09-27T14:55:22.404Z,0.90
2022-09-27T14:58:00.969Z,1.10
2022-09-27T15:00:32.555Z,0.70
2022-09-27T15:03:06.077Z,0.88
2022-09-27T15:05:35.753Z,0.88
2022-09-27T15:08:06.764Z,1.25
2022-09-27T15:10:37.536Z,1.38
2022-09-27T15:13:06.998Z,1.10
2022-09-27T15:15:39.814Z,0.85
2022-09-27T15:18:46.557Z,0.90
2022-09-27T15:21:28.406Z,0.50
2022-09-27T15:23:58.843Z,0.45
2022-09-27T15:26:39.905Z,0.70
2022-09-27T15:29:23.079Z,0.60
2022-09-27T15:32:06.957Z,0.80
2022-09-27T15:34:39.495Z,1.80
2022-09-27T15:37:10.369Z,0.65
2022-09-27T15:39:40.477Z,0.82
2022-09-27T15:42:10.313Z,0.43
2022-09-27T15:44:47.609Z,0.60
2022-09-27T15:47:32.173Z,0.70
2022-09-27T15:50:26.981Z,0.70
2022-09-27T15:52:57.502Z,0.60
2022-09-27T15:55:28.730Z,1.67
2022-09-27T15:58:16.229Z,0.60
2022-09-27T16:01:00.005Z,0.80
2022-09-27T16:03:28.832Z,0.70
2022-09-27T16:05:58.889Z,0.98
2022-09-27T16:08:28.109Z,0.95
2022-09-27T16:10:59.683Z,1.10
2022-09-27T16:13:32.696Z,1.10
2022-09-27T16:16:03.158Z,0.75
2022-09-27T16:18:32.844Z,0.85
2022-09-27T16:21:01.488Z,1.05
2022-09-27T16:23:29.904Z,0.90
2022-09-27T16:25:58.353Z,1.05
2022-09-27T16:28:27.080Z,0.98
2022-09-27T16:31:01.485Z,1.63
2022-09-27T16:33:32.803Z,2.08
2022-09-27T16:36:06.918Z,1.42
2022-09-27T16:38:35.204Z,1.48
2022-09-27T16:41:04.186Z,1.30
2022-09-27T16:43:32.624Z,1.35
2022-09-27T16:46:07.459Z,1.67
2022-09-27T16:48:35.904Z,1.90
2022-09-27T16:51:25.236Z,1.20
2022-09-27T16:53:53.835Z,2.20
2022-09-27T16:56:22.778Z,1.48
2022-09-27T16:58:51.421Z,1.00
2022-09-27T17:01:21.735Z,1.10
2022-09-27T17:03:55.571Z,1.05
2022-09-27T17:06:28.555Z,1.20
2022-09-27T17:08:57.612Z,1.00
2022-09-27T17:11:25.961Z,1.23
2022-09-27T17:13:55.983Z,1.20
2022-09-27T17:16:25.172Z,1.38
2022-09-27T17:18:53.856Z,1.90
2022-09-27T17:21:35.670Z,1.27
2022-09-27T17:24:06.963Z,1.30
2022-09-27T17:26:35.935Z,3.67
2022-09-27T17:29:04.621Z,3.38
2022-09-27T17:31:34.978Z,1.52
2022-09-27T17:34:04.862Z,1.40
2022-09-27T17:36:37.658Z,1.88
2022-09-27T17:39:06.076Z,1.27
2022-09-27T17:41:39.573Z,1.60
2022-09-27T17:44:13.351Z,1.10
2022-09-27T17:46:42.445Z,0.82
2022-09-27T17:49:32.963Z,0.95
2022-09-27T17:54:30.667Z,0.80
2022-09-27T17:56:59.001Z,0.68
2022-09-27T17:59:27.272Z,0.90
2022-09-27T18:01:56.082Z,0.77
2022-09-27T18:04:24.782Z,0.68
2022-09-27T18:06:54.137Z,0.60
2022-09-27T18:09:25.298Z,1.38
2022-09-27T18:11:54.466Z,0.93
2022-09-27T18:14:31.154Z,0.50
2022-09-27T18:17:00.989Z,0.57
2022-09-27T18:19:29.519Z,1.00
2022-09-27T18:22:00.034Z,0.88
2022-09-27T18:24:29.651Z,0.52
2022-09-27T18:26:59.813Z,0.70
2022-09-27T18:29:28.913Z,0.60
2022-09-27T18:31:57.383Z,5.90
2022-09-27T18:34:26.573Z,5.53
2022-09-27T18:36:54.922Z,6.07
2022-09-27T18:39:23.370Z,2.10
2022-09-27T18:41:53.186Z,1.63
2022-09-27T18:44:23.036Z,1.30
2022-09-27T18:46:51.881Z,1.40
2022-09-27T18:49:27.046Z,1.00
2022-09-27T18:51:57.520Z,1.17
2022-09-27T18:54:29.894Z,0.85
2022-09-27T18:56:58.252Z,1.20
2022-09-27T18:59:26.730Z,1.50
2022-09-27T19:01:55.251Z,1.70
2022-09-27T19:04:26.956Z,1.58
2022-09-27T19:06:57.557Z,1.75
2022-09-27T19:09:28.675Z,2.05
2022-09-27T19:11:57.348Z,1.85
2022-09-27T19:14:25.980Z,1.50
2022-09-27T19:16:54.557Z,1.85
2022-09-27T19:19:23.286Z,3.17
2022-09-27T19:21:51.715Z,2.90
2022-09-27T19:24:21.475Z,2.40
2022-09-27T19:26:53.545Z,1.90
2022-09-27T19:29:23.087Z,2.55
2022-09-27T19:32:12.240Z,3.33
2022-09-27T19:34:56.157Z,2.38
2022-09-27T19:37:24.648Z,2.03
2022-09-27T19:39:55.589Z,1.90
2022-09-27T19:42:24.371Z,1.90
2022-09-27T19:44:52.872Z,1.15
2022-09-27T19:47:21.313Z,1.42
2022-09-27T19:49:50.367Z,1.40
2022-09-27T19:52:18.790Z,1.67
2022-09-27T19:54:47.280Z,1.50
2022-09-27T19:59:46.793Z,3.15
2022-09-27T20:02:18.273Z,1.40
2022-09-27T20:04:46.650Z,1.38
2022-09-27T20:07:15.632Z,1.25
2022-09-27T20:09:44.163Z,1.20
2022-09-27T20:12:12.504Z,1.10
2022-09-27T20:14:43.158Z,1.35
2022-09-27T20:17:11.609Z,1.55
2022-09-27T20:19:39.955Z,1.40
2022-09-27T20:22:08.491Z,1.60
2022-09-27T20:24:36.996Z,1.35
2022-09-27T20:27:05.652Z,2.20
2022-09-27T20:29:34.489Z,1.50
2022-09-27T20:32:26.071Z,1.65
2022-09-27T20:34:52.341Z,1.40
2022-09-27T20:37:22.787Z,1.30
2022-09-27T20:39:52.684Z,1.77
2022-09-27T20:42:23.906Z,1.50
2022-09-27T20:44:57.812Z,1.40
2022-09-27T20:47:26.514Z,1.60
2022-09-27T20:49:55.100Z,1.55
2022-09-27T20:52:23.557Z,1.60
2022-09-27T20:54:55.139Z,1.50
2022-09-27T20:57:46.287Z,1.45
2022-09-27T21:00:14.286Z,1.70
2022-09-27T21:02:45.686Z,1.80
2022-09-27T21:05:15.058Z,1.50
2022-09-27T21:07:43.767Z,1.80
2022-09-27T21:10:12.476Z,1.80
2022-09-27T21:12:40.885Z,1.42
2022-09-27T21:15:09.420Z,1.33
2022-09-27T21:17:40.627Z,1.40
2022-09-27T21:20:10.228Z,1.50
2022-09-27T21:22:39.564Z,1.50
2022-09-27T21:25:08.382Z,1.60
2022-09-27T21:27:36.891Z,1.50
2022-09-27T21:30:05.921Z,1.65
2022-09-27T21:32:34.389Z,1.70
2022-09-27T21:35:03.145Z,1.65
2022-09-27T21:37:31.917Z,1.60
2022-09-27T21:40:00.964Z,1.90
2022-09-27T21:42:29.384Z,1.80
2022-09-27T21:44:57.844Z,1.65
2022-09-27T21:47:26.255Z,1.48
2022-09-27T21:49:54.933Z,1.85
2022-09-27T21:52:23.606Z,1.70
2022-09-27T21:54:52.246Z,1.60
2022-09-27T21:57:20.734Z,1.45
2022-09-27T21:59:49.013Z,1.50
2022-09-27T22:02:21.968Z,1.60
2022-09-27T22:04:51.280Z,1.50
2022-09-27T22:07:21.918Z,1.80
2022-09-27T22:09:50.411Z,1.80
2022-09-27T22:12:18.763Z,2.25
2022-09-27T22:14:47.839Z,1.80
2022-09-27T22:17:16.484Z,2.30
2022-09-27T22:19:44.916Z,1.92
2022-09-27T22:22:13.244Z,1.90
2022-09-27T22:24:41.655Z,2.50
2022-09-27T22:27:10.279Z,3.10
2022-09-27T22:29:38.640Z,2.80
2022-09-27T22:32:07.121Z,2.97
2022-09-27T22:34:35.442Z,3.17
2022-09-27T22:37:03.950Z,2.63
2022-09-27T22:39:32.319Z,3.30
2022-09-27T22:42:00.743Z,2.35
2022-09-27T22:44:29.306Z,2.67
2022-09-27T22:46:58.013Z,2.40
2022-09-27T22:49:26.305Z,2.15
2022-09-27T22:51:54.602Z,2.20
2022-09-27T22:54:23.036Z,2.10
2022-09-27T22:56:57.282Z,2.05
2022-09-27T22:59:26.885Z,2.08
2022-09-27T23:01:55.861Z,2.25
2022-09-27T23:04:24.224Z,1.85
2022-09-27T23:06:54.130Z,1.75
2022-09-27T23:09:22.593Z,1.95
2022-09-27T23:11:51.185Z,1.90
2022-09-27T23:14:21.892Z,2.03
2022-09-27T23:16:50.276Z,2.13
2022-09-27T23:19:22.283Z,2.72
2022-09-27T23:21:50.685Z,2.08
2022-09-27T23:24:19.162Z,1.98
2022-09-27T23:27:07.605Z,2.10
2022-09-27T23:29:37.772Z,2.03
2022-09-27T23:32:06.176Z,2.25
2022-09-27T23:34:35.735Z,1.98
2022-09-27T23:37:04.078Z,2.65
2022-09-27T23:39:33.589Z,2.58
2022-09-27T23:42:01.916Z,2.60
2022-09-27T23:44:30.340Z,2.92
2022-09-27T23:47:00.510Z,2.78
2022-09-27T23:49:29.531Z,2.35
2022-09-27T23:51:58.837Z,3.40
2022-09-27T23:54:28.145Z,3.65
2022-09-27T23:56:59.447Z,3.15
2022-09-27T23:59:28.239Z,3.92
